createdAt,value
2019-05-02T00:03:21.004Z,18.93
2019-05-02T00:08:24.329Z,18.93
2019-05-02T00:13:27.621Z,18.92
2019-05-02T00:18:31.947Z,18.93
2019-05-02T00:23:36.290Z,18.92
2019-05-02T00:28:43.005Z,18.93
2019-05-02T00:33:44.669Z,18.92
2019-05-02T00:38:47.976Z,18.92
2019-05-02T00:43:51.269Z,18.93
2019-05-02T00:48:59.770Z,18.93
2019-05-02T00:54:01.360Z,18.95
2019-05-02T00:59:07.472Z,18.94
2019-05-02T01:04:11.410Z,18.94
2019-05-02T01:09:14.711Z,18.94
2019-05-02T01:14:18.077Z,18.94
2019-05-02T01:19:21.491Z,18.94
2019-05-02T01:24:24.789Z,18.92
2019-05-02T01:29:38.517Z,18.92
2019-05-02T01:34:43.465Z,18.91
2019-05-02T01:39:46.761Z,18.90
2019-05-02T01:44:50.102Z,18.91
2019-05-02T01:49:57.230Z,18.92
2019-05-02T01:54:58.494Z,18.90
2019-05-02T02:00:04.236Z,18.90
2019-05-02T02:05:07.241Z,18.89
2019-05-02T02:10:14.996Z,18.89
2019-05-02T02:15:15.637Z,18.90
2019-05-02T02:20:23.017Z,18.89
2019-05-02T02:25:36.292Z,18.90
2019-05-02T02:30:39.681Z,18.89
2019-05-02T02:35:49.774Z,18.88
2019-05-02T02:40:48.057Z,18.89
2019-05-02T02:45:57.601Z,18.89
2019-05-02T02:50:58.030Z,18.85
2019-05-02T02:56:03.831Z,18.74
2019-05-02T03:01:07.557Z,18.78
2019-05-02T03:06:10.870Z,18.81
2019-05-02T03:11:22.367Z,18.79
2019-05-02T03:16:22.512Z,18.81
2019-05-02T03:21:25.846Z,18.75
2019-05-02T03:26:29.171Z,18.84
2019-05-02T03:31:32.478Z,18.85
2019-05-02T03:36:37.220Z,18.86
2019-05-02T03:41:40.749Z,18.85
2019-05-02T03:46:44.083Z,18.85
2019-05-02T03:51:47.434Z,18.84
2019-05-02T03:56:51.595Z,18.83
2019-05-02T04:01:55.820Z,18.80
2019-05-02T04:07:01.107Z,18.76
2019-05-02T04:12:04.345Z,18.81
2019-05-02T04:17:07.687Z,18.84
2019-05-02T04:22:11.918Z,18.74
2019-05-02T04:27:15.499Z,18.81
2019-05-02T04:32:18.844Z,18.89
2019-05-02T04:37:22.144Z,18.86
2019-05-02T04:42:25.458Z,18.93
2019-05-02T04:47:29.192Z,18.92
2019-05-02T04:52:40.735Z,18.94
2019-05-02T04:57:46.774Z,18.81
2019-05-02T05:02:42.655Z,18.82
2019-05-02T05:07:46.688Z,18.87
2019-05-02T05:12:51.052Z,19.02
2019-05-02T05:17:54.389Z,18.92
2019-05-02T05:22:58.177Z,18.87
2019-05-02T05:28:05.822Z,18.87
2019-05-02T05:33:07.584Z,18.82
2019-05-02T05:38:11.622Z,18.74
2019-05-02T05:43:17.987Z,18.68
2019-05-02T05:48:19.966Z,18.74
2019-05-02T05:53:24.597Z,18.94
2019-05-02T05:58:28.471Z,19.01
2019-05-02T06:03:34.048Z,19.40
2019-05-02T06:08:37.103Z,19.62
2019-05-02T06:13:43.029Z,20.58
2019-05-02T06:18:45.624Z,21.29
2019-05-02T06:23:48.922Z,21.21
2019-05-02T06:28:52.249Z,21.19
2019-05-02T06:33:55.560Z,20.61
2019-05-02T06:38:58.935Z,20.96
2019-05-02T06:44:02.256Z,20.43
2019-05-02T06:49:05.660Z,21.10
2019-05-02T06:54:09.046Z,21.03
2019-05-02T06:59:13.188Z,21.98
2019-05-02T07:04:22.715Z,20.92
2019-05-02T07:09:22.737Z,21.57
2019-05-02T07:14:26.168Z,21.18
2019-05-02T07:19:32.271Z,20.77
2019-05-02T07:24:35.579Z,20.61
2019-05-02T07:29:38.881Z,20.18
2019-05-02T07:34:44.256Z,20.16
2019-05-02T07:39:47.240Z,20.20
2019-05-02T07:44:50.571Z,19.95
2019-05-02T07:49:53.922Z,19.97
2019-05-02T07:55:01.152Z,19.98
2019-05-02T08:00:02.790Z,19.92
2019-05-02T08:05:08.734Z,19.89
2019-05-02T08:10:11.404Z,19.88
2019-05-02T08:15:15.276Z,20.01
2019-05-02T08:20:19.566Z,20.05
2019-05-02T08:25:23.725Z,20.00
2019-05-02T08:30:28.720Z,20.02
2019-05-02T08:35:32.071Z,19.88
2019-05-02T08:40:35.412Z,19.93
2019-05-02T08:45:39.633Z,19.76
2019-05-02T08:50:42.921Z,19.43
2019-05-02T08:55:46.739Z,19.84
2019-05-02T09:00:50.161Z,19.76
2019-05-02T09:06:05.328Z,19.78
2019-05-02T09:10:59.109Z,19.77
2019-05-02T09:16:05.571Z,19.78
2019-05-02T09:21:07.465Z,19.69
2019-05-02T09:26:11.934Z,19.70
2019-05-02T09:31:15.844Z,19.63
2019-05-02T09:36:19.177Z,19.76
2019-05-02T09:41:26.938Z,19.62
2019-05-02T09:46:27.587Z,19.57
2019-05-02T09:51:32.463Z,19.66
2019-05-02T09:56:35.927Z,19.62
2019-05-02T10:01:42.111Z,19.53
2019-05-02T10:06:45.701Z,19.49
2019-05-02T10:11:49.066Z,19.55
2019-05-02T10:16:53.060Z,19.52
2019-05-02T10:21:56.531Z,19.54
2019-05-02T10:27:04.144Z,19.57
2019-05-02T10:32:07.557Z,19.62
2019-05-02T10:37:09.886Z,19.58
2019-05-02T10:42:13.212Z,19.52
2019-05-02T10:47:16.562Z,19.64
2019-05-02T10:52:21.696Z,19.62
2019-05-02T10:57:24.906Z,19.56
2019-05-02T11:02:29.871Z,19.58
2019-05-02T11:07:33.165Z,19.61
2019-05-02T11:12:44.068Z,19.57
2019-05-02T11:17:47.135Z,19.54
2019-05-02T11:22:52.632Z,19.46
2019-05-02T11:27:57.333Z,19.57
2019-05-02T11:33:02.884Z,19.56
2019-05-02T11:38:05.579Z,19.58
2019-05-02T11:43:08.858Z,19.47
2019-05-02T11:48:13.994Z,19.53
2019-05-02T11:53:28.861Z,19.51
2019-05-02T11:58:22.978Z,19.38
2019-05-02T12:03:42.995Z,19.51
2019-05-02T12:08:49.365Z,19.48
2019-05-02T12:13:54.798Z,19.62
2019-05-02T12:19:08.480Z,19.50
2019-05-02T12:24:02.241Z,19.46
2019-05-02T12:29:05.759Z,19.44
2019-05-02T12:34:09.152Z,19.41
2019-05-02T12:39:12.724Z,19.47
2019-05-02T12:44:16.010Z,19.41
2019-05-02T12:49:25.325Z,19.44
2019-05-02T12:54:24.366Z,19.43
2019-05-02T12:59:27.693Z,19.41
2019-05-02T13:04:32.253Z,19.46
2019-05-02T13:09:35.607Z,19.42
2019-05-02T13:14:39.026Z,19.57
2019-05-02T13:19:55.803Z,19.50
2019-05-02T13:24:54.176Z,19.48
2019-05-02T13:29:54.271Z,19.51
2019-05-02T13:35:02.330Z,19.53
2019-05-02T13:40:11.965Z,19.51
2019-05-02T13:45:22.876Z,19.47
2019-05-02T13:50:26.281Z,19.16
2019-05-02T13:55:33.737Z,18.70
2019-05-02T14:00:48.083Z,19.12
2019-05-02T14:05:53.790Z,18.97
2019-05-02T14:11:06.779Z,19.36
2019-05-02T14:16:12.095Z,19.47
2019-05-02T14:21:15.323Z,19.34
2019-05-02T14:26:29.581Z,19.37
2019-05-02T14:31:23.927Z,19.47
2019-05-02T14:36:27.344Z,19.54
2019-05-02T14:41:38.930Z,19.42
2019-05-02T14:46:39.375Z,19.59
2019-05-02T14:51:41.789Z,19.69
2019-05-02T14:56:49.737Z,19.66
2019-05-02T15:01:57.899Z,19.69
2019-05-02T15:07:01.901Z,19.71
2019-05-02T15:12:13.897Z,19.96
2019-05-02T15:17:11.986Z,20.04
2019-05-02T15:22:14.992Z,20.15
2019-05-02T15:27:18.324Z,20.07
2019-05-02T15:32:25.421Z,20.02
2019-05-02T15:37:29.139Z,19.96
2019-05-02T15:42:32.470Z,19.97
2019-05-02T15:47:41.117Z,19.90
2019-05-02T15:52:42.778Z,20.07
2019-05-02T15:57:48.018Z,20.10
2019-05-02T16:02:51.709Z,20.14
2019-05-02T16:08:05.397Z,20.05
2019-05-02T16:13:00.726Z,20.14
2019-05-02T16:18:05.344Z,19.98
2019-05-02T16:23:08.749Z,20.00
2019-05-02T16:28:12.691Z,20.01
2019-05-02T16:33:19.759Z,19.98
2019-05-02T16:38:22.230Z,20.04
2019-05-02T16:43:27.590Z,20.11
2019-05-02T16:48:37.425Z,20.09
2019-05-02T16:53:35.976Z,20.01
2019-05-02T16:58:45.310Z,19.96
2019-05-02T17:03:44.560Z,19.93
2019-05-02T17:08:57.366Z,19.98
2019-05-02T17:13:57.622Z,19.84
2019-05-02T17:19:01.676Z,19.90
2019-05-02T17:24:05.170Z,20.09
2019-05-02T17:29:08.530Z,20.17
2019-05-02T17:34:14.651Z,20.21
2019-05-02T17:39:18.798Z,20.20
2019-05-02T17:44:24.472Z,20.31
2019-05-02T17:49:34.800Z,20.58
2019-05-02T17:54:32.357Z,20.23
2019-05-02T17:59:37.575Z,20.04
2019-05-02T18:04:41.920Z,19.97
2019-05-02T18:09:45.362Z,19.91
2019-05-02T18:14:52.536Z,19.92
2019-05-02T18:19:56.763Z,19.98
2019-05-02T18:24:58.833Z,19.99
2019-05-02T18:30:02.387Z,19.81
2019-05-02T18:35:06.445Z,19.91
2019-05-02T18:40:11.769Z,19.91
2019-05-02T18:45:27.366Z,19.87
2019-05-02T18:50:44.289Z,19.89
2019-05-02T18:55:42.444Z,19.82
2019-05-02T19:00:45.784Z,19.73
2019-05-02T19:05:51.486Z,19.66
2019-05-02T19:11:05.346Z,19.76
2019-05-02T19:15:59.314Z,19.71
2019-05-02T19:21:03.349Z,19.77
2019-05-02T19:26:09.948Z,19.79
2019-05-02T19:31:12.046Z,19.71
2019-05-02T19:36:16.224Z,19.67
2019-05-02T19:41:22.314Z,19.67
2019-05-02T19:46:34.742Z,19.61
2019-05-02T19:51:31.699Z,19.61
2019-05-02T19:56:43.931Z,19.61
2019-05-02T20:01:40.139Z,19.56
2019-05-02T20:06:43.454Z,19.61
2019-05-02T20:11:46.761Z,19.58
2019-05-02T20:16:52.894Z,19.57
2019-05-02T20:22:02.883Z,19.58
2019-05-02T20:27:02.991Z,19.55
2019-05-02T20:32:06.315Z,19.51
2019-05-02T20:37:09.798Z,19.48
2019-05-02T20:42:13.118Z,19.43
2019-05-02T20:47:21.744Z,19.41
2019-05-02T20:57:48.387Z,19.38
2019-05-02T21:02:51.931Z,19.35
2019-05-02T21:08:02.337Z,19.35
2019-05-02T21:13:05.725Z,19.36
2019-05-02T21:18:09.061Z,19.36
2019-05-02T21:23:12.392Z,19.38
2019-05-02T21:28:15.736Z,19.38
2019-05-02T21:33:32.034Z,19.35
2019-05-02T21:38:35.378Z,19.34
2019-05-02T21:43:38.693Z,19.36
2019-05-02T21:48:42.178Z,19.35
2019-05-02T21:53:54.913Z,19.35
2019-05-02T21:59:09.563Z,19.34
2019-05-02T22:04:13.285Z,19.34
2019-05-02T22:09:16.704Z,19.34
2019-05-02T22:14:22.088Z,19.34
2019-05-02T22:19:25.140Z,19.34
2019-05-02T22:24:28.488Z,19.34
2019-05-02T22:29:32.431Z,19.33
2019-05-02T22:34:35.908Z,19.33
2019-05-02T22:39:42.050Z,19.33
2019-05-02T22:44:45.527Z,19.31
2019-05-02T22:49:48.887Z,19.32
2019-05-02T22:54:52.475Z,19.30
2019-05-02T22:59:55.796Z,19.28
2019-05-02T23:04:59.147Z,19.30
2019-05-02T23:10:02.596Z,19.29
2019-05-02T23:15:06.735Z,19.28
2019-05-02T23:20:10.084Z,19.28
2019-05-02T23:25:23.940Z,19.29
2019-05-02T23:30:27.376Z,19.35
2019-05-02T23:35:32.003Z,19.33
2019-05-02T23:40:35.793Z,19.34
2019-05-02T23:45:39.144Z,19.33
2019-05-02T23:50:42.522Z,19.34
2019-05-02T23:55:45.876Z,19.35
